Time;durP1;ratioP1;P1;durP2;ratioP2;P2;SDS_P1;SDS_P2;PMS_P1;PMS_P2;Temp;Humidity;BMP_temperature;BMP_pressure;BME280_temperature;BME280_humidity;BME280_pressure;Samples;Min_cycle;Max_cycle;Signal;HPM_P1;HPM_P2
2021/08/07 00:02:01;;;;;;;6.43;2.90;;;;;;;15.31;67.14;99735.66;4778245;62;21212;-77
2021/08/07 00:07:07;;;;;;;3.13;2.83;;;;;;;15.31;67.89;99735.66;4778156;62;22178;-77
2021/08/07 00:12:13;;;;;;;4.33;2.97;;;;;;;15.38;68.34;99724.17;4849795;61;21192;-77
2021/08/07 00:17:19;;;;;;;4.17;2.60;;;;;;;15.43;68.31;99716.98;4856080;61;22104;-78
2021/08/07 00:22:24;;;;;;;4.17;3.00;;;;;;;15.32;67.54;99717.34;4942152;60;21213;-77
2021/08/07 00:27:30;;;;;;;4.47;2.70;;;;;;;15.22;68.05;99704.71;4934745;59;21252;-77
2021/08/07 00:32:36;;;;;;;5.57;3.50;;;;;;;15.24;68.25;99706.71;4935250;60;21205;-77
2021/08/07 00:37:42;;;;;;;10.43;5.60;;;;;;;15.20;67.58;99716.86;4935185;59;21209;-77
2021/08/07 00:42:49;;;;;;;13.47;5.13;;;;;;;15.09;67.64;99721.20;4935323;60;21142;-77
2021/08/07 00:47:56;;;;;;;6.53;4.90;;;;;;;15.01;67.87;99714.53;4932247;60;21281;-77
2021/08/07 00:53:05;;;;;;;4.70;3.83;;;;;;;14.99;68.11;99713.87;4934408;59;21206;-77
2021/08/07 00:58:11;;;;;;;6.03;2.13;;;;;;;14.99;68.16;99704.55;4934902;60;21171;-78
2021/08/07 01:03:33;;;;;;;6.13;3.20;;;;;;;14.81;67.52;99707.41;4934771;60;21217;-77
2021/08/07 01:08:43;;;;;;;3.03;2.57;;;;;;;14.72;68.25;99705.72;4934483;60;21519;-77
2021/08/07 01:13:54;;;;;;;4.53;2.37;;;;;;;14.72;68.53;99700.39;4934473;60;21235;-78
2021/08/07 01:19:02;;;;;;;4.07;2.30;;;;;;;14.79;68.71;99706.73;4934001;59;21264;-77
2021/08/07 01:24:36;;;;;;;15.03;2.90;;;;;;;14.87;68.75;99706.72;4945055;60;21191;-77
2021/08/07 01:29:42;;;;;;;;;;;;;;;14.88;68.55;99704.39;4948733;59;21183;-78
2021/08/07 01:34:48;;;;;;;3.10;2.63;;;;;;;14.85;68.22;99713.20;4944966;60;20161;-77
2021/08/07 01:39:58;;;;;;;3.00;2.70;;;;;;;14.69;67.87;99710.86;4944882;59;21195;-77
2021/08/07 01:45:06;;;;;;;8.93;3.73;;;;;;;14.61;68.04;99710.87;4943649;60;21191;-77
2021/08/07 01:50:26;;;;;;;10.43;3.50;;;;;;;14.48;67.92;99707.86;4945182;60;21195;-78
2021/08/07 01:56:02;;;;;;;6.10;3.80;;;;;;;14.38;68.04;99701.30;4977735;59;21186;-77
2021/08/07 02:01:11;;;;;;;12.93;4.17;;;;;;;14.32;68.14;99701.14;4960443;59;21252;-78
2021/08/07 02:06:20;;;;;;;48.53;6.10;;;;;;;14.23;68.17;99698.11;4996819;59;21128;-77
2021/08/07 02:11:26;;;;;;;15.87;5.90;;;;;;;14.11;68.48;99695.42;4937351;59;21267;-78
2021/08/07 02:16:36;;;;;;;10.60;6.13;;;;;;;14.00;68.77;99690.75;4913390;60;21568;-78
2021/08/07 02:21:44;;;;;;;9.93;5.27;;;;;;;13.97;68.89;99688.90;4883179;60;21649;-78
2021/08/07 02:26:52;;;;;;;10.03;4.90;;;;;;;13.91;69.01;99689.03;4918447;60;21126;-78
2021/08/07 02:32:00;;;;;;;10.27;5.67;;;;;;;13.90;69.00;99699.86;4918329;60;21231;-77
2021/08/07 02:37:07;;;;;;;13.83;5.87;;;;;;;13.86;69.00;99695.35;4918386;60;21176;-78
2021/08/07 02:42:15;;;;;;;9.70;5.13;;;;;;;13.84;69.15;99693.84;4918385;60;21196;-77
2021/08/07 02:47:24;;;;;;;9.00;5.90;;;;;;;13.82;69.32;99689.17;4918368;60;21192;-78
2021/08/07 02:52:32;;;;;;;11.87;7.03;;;;;;;13.81;69.19;99700.80;4917178;60;21189;-78
2021/08/07 02:57:40;;;;;;;6.40;3.27;;;;;;;13.78;69.51;99697.95;4840694;61;22170;-77
2021/08/07 03:02:49;;;;;;;10.20;4.80;;;;;;;13.71;69.59;99694.28;4878072;61;21165;-78
2021/08/07 03:07:54;;;;;;;13.87;5.53;;;;;;;13.65;69.50;99689.10;4882430;60;21192;-77
2021/08/07 03:13:02;;;;;;;12.67;6.77;;;;;;;13.58;69.73;99677.45;4955143;59;21215;-77
2021/08/07 03:18:09;;;;;;;8.97;5.43;;;;;;;13.52;70.27;99687.38;4955216;60;21229;-77
2021/08/07 03:23:16;;;;;;;3.30;2.60;;;;;;;13.53;70.55;99684.23;4952516;60;21600;-77
2021/08/07 03:28:26;;;;;;;8.67;2.40;;;;;;;13.55;70.82;99684.41;4942569;60;21206;-77
2021/08/07 03:33:33;;;;;;;5.43;2.13;;;;;;;13.58;70.93;99674.80;4944466;60;21231;-77
2021/08/07 03:38:39;;;;;;;3.33;2.13;;;;;;;13.58;71.27;99672.14;4945361;60;21725;-77
2021/08/07 03:43:45;;;;;;;6.77;2.93;;;;;;;13.65;71.50;99678.97;4946087;60;21144;-77
2021/08/07 03:48:53;;;;;;;11.17;4.10;;;;;;;13.66;71.67;99680.14;4946120;60;21227;-78
2021/08/07 03:53:59;;;;;;;6.83;3.80;;;;;;;13.71;71.84;99679.67;4946247;59;21423;-77
2021/08/07 03:59:07;;;;;;;3.17;2.70;;;;;;;13.72;71.55;99684.83;4946787;59;21601;-78
2021/08/07 04:04:14;;;;;;;9.77;2.73;;;;;;;13.68;71.31;99694.11;4946700;60;21211;-77
2021/08/07 04:09:21;;;;;;;10.23;3.97;;;;;;;13.66;71.91;99682.80;4928839;60;21180;-78
2021/08/07 04:14:29;;;;;;;5.93;2.77;;;;;;;13.69;72.14;99673.19;4934517;60;21187;-78
2021/08/07 04:19:35;;;;;;;10.00;3.00;;;;;;;13.72;72.54;99678.68;4854025;61;21207;-78
2021/08/07 04:24:42;;;;;;;10.87;3.70;;;;;;;13.79;72.61;99674.88;4853865;61;21230;-78
2021/08/07 04:29:50;;;;;;;7.60;4.33;;;;;;;13.87;72.69;99675.75;4856562;61;21226;-78
2021/08/07 04:34:56;;;;;;;12.60;5.07;;;;;;;13.96;73.04;99672.12;4856618;61;21154;-79
2021/08/07 04:40:02;;;;;;;6.00;3.23;;;;;;;14.02;73.02;99665.33;4856725;61;21228;-83
2021/08/07 04:45:09;;;;;;;4.57;2.20;;;;;;;14.12;73.22;99663.85;4856680;61;21183;-82
2021/08/07 04:50:16;;;;;;;5.83;2.20;;;;;;;14.12;73.18;99681.14;4856272;61;21165;-81
2021/08/07 04:55:22;;;;;;;3.10;2.27;;;;;;;14.06;73.43;99686.59;4856368;61;21157;-79
2021/08/07 05:00:29;;;;;;;8.37;2.20;;;;;;;14.03;74.25;99681.13;4855399;61;21167;-79
2021/08/07 05:05:36;;;;;;;2.57;2.13;;;;;;;14.07;74.24;99670.98;4841080;61;22190;-82
2021/08/07 05:10:43;;;;;;;5.03;3.17;;;;;;;14.21;74.57;99674.83;4856463;61;21612;-81
2021/08/07 05:15:49;;;;;;;8.73;4.03;;;;;;;14.40;75.26;99685.22;4856359;61;21147;-82
2021/08/07 05:20:55;;;;;;;6.23;3.20;;;;;;;14.59;76.37;99687.58;4856643;61;21665;-84
2021/08/07 05:26:02;;;;;;;13.07;4.90;;;;;;;14.80;77.42;99693.76;4856055;61;21166;-82
2021/08/07 05:31:08;;;;;;;6.50;4.17;;;;;;;14.95;77.27;99689.93;4856403;61;21197;-83
2021/08/07 05:36:14;;;;;;;4.80;3.90;;;;;;;15.07;77.62;99686.75;4856550;60;21509;-83
2021/08/07 05:41:20;;;;;;;9.87;4.20;;;;;;;15.12;77.86;99688.39;4856491;61;21181;-80
2021/08/07 05:46:26;;;;;;;8.00;5.60;;;;;;;15.25;77.88;99693.23;4856452;61;21170;-81
2021/08/07 05:51:34;;;;;;;13.93;5.67;;;;;;;15.42;78.55;99701.52;4856345;61;21165;-82
2021/08/07 05:56:40;;;;;;;9.27;4.93;;;;;;;15.58;79.00;99698.52;4880829;60;21623;-80
2021/08/07 06:01:47;;;;;;;7.23;4.80;;;;;;;15.77;78.72;99700.77;4996641;59;21656;-81
2021/08/07 06:06:53;;;;;;;9.00;4.57;;;;;;;15.97;79.35;99705.20;4960674;59;21179;-81
2021/08/07 06:11:59;;;;;;;7.53;4.90;;;;;;;16.19;79.46;99697.77;4997261;59;22070;-81
2021/08/07 06:17:06;;;;;;;14.67;4.47;;;;;;;16.41;79.45;99695.62;4996983;59;21189;-84
2021/08/07 06:22:13;;;;;;;11.97;6.00;;;;;;;16.65;80.24;99699.98;4997017;59;21126;-79
2021/08/07 06:27:19;;;;;;;8.03;5.13;;;;;;;16.84;79.75;99702.68;4996929;59;21497;-80
2021/08/07 06:32:25;;;;;;;7.33;4.80;;;;;;;17.07;80.15;99703.50;4996831;59;21264;-84
2021/08/07 06:37:32;;;;;;;8.17;5.47;;;;;;;17.27;81.21;99710.98;4996870;59;21197;-83
2021/08/07 06:42:37;;;;;;;9.77;6.40;;;;;;;17.46;81.14;99711.80;4996783;59;21186;-85
2021/08/07 06:47:45;;;;;;;7.60;5.00;;;;;;;17.70;80.85;99702.23;4959607;59;21189;-82
2021/08/07 06:52:51;;;;;;;6.50;5.07;;;;;;;17.94;81.65;99705.11;4996756;59;21228;-82
2021/08/07 06:57:57;;;;;;;8.97;5.90;;;;;;;18.13;81.42;99707.72;4978852;59;21122;-83
2021/08/07 07:03:04;;;;;;;6.13;5.53;;;;;;;18.23;80.65;99710.92;4963463;60;21544;-81
2021/08/07 07:08:09;;;;;;;10.27;6.43;;;;;;;18.40;80.72;99708.34;4963315;60;21216;-84
2021/08/07 07:13:16;;;;;;;5.13;4.40;;;;;;;18.61;81.03;99707.58;4953323;60;21233;-82
2021/08/07 07:18:22;;;;;;;5.90;4.87;;;;;;;18.75;81.61;99716.57;4953296;60;21152;-83
2021/08/07 07:23:28;;;;;;;8.00;5.77;;;;;;;18.77;81.41;99731.95;4953043;60;21203;-83
2021/08/07 07:28:35;;;;;;;5.67;5.17;;;;;;;18.77;81.36;99734.63;4952776;60;21226;-79
2021/08/07 07:33:41;;;;;;;7.97;5.00;;;;;;;18.82;81.92;99737.03;4952651;60;21223;-83
2021/08/07 07:38:48;;;;;;;5.65;5.10;;;;;;;18.91;81.48;99737.75;4953206;60;21688;-79
2021/08/07 07:43:54;;;;;;;4.35;3.95;;;;;;;19.10;81.01;99746.97;4953402;60;21199;-84
2021/08/07 07:49:01;;;;;;;8.03;4.35;;;;;;;19.30;80.56;99743.95;4954080;60;22494;-80
2021/08/07 07:54:07;;;;;;;6.87;4.53;;;;;;;19.37;80.41;99746.19;4954045;60;21222;-84
2021/08/07 07:59:14;;;;;;;3.33;3.12;;;;;;;19.52;79.92;99740.77;4948985;58;21525;-83
2021/08/07 08:04:20;;;;;;;4.78;4.28;;;;;;;19.67;79.21;99745.52;4945365;58;21238;-80
2021/08/07 08:09:26;;;;;;;6.12;3.42;;;;;;;19.91;78.39;99745.02;4852631;60;21143;-82
2021/08/07 08:14:32;;;;;;;3.52;3.33;;;;;;;20.21;78.42;99744.75;4848374;60;22049;-80
2021/08/07 08:19:41;;;;;;;5.60;3.02;;;;;;;20.34;77.07;99752.34;4926636;59;21215;-81
2021/08/07 08:24:46;;;;;;;3.20;3.00;;;;;;;20.31;76.03;99743.38;4957333;59;21210;-81
2021/08/07 08:29:52;;;;;;;2.40;2.30;;;;;;;20.51;75.88;99750.69;4954913;60;21640;-80
2021/08/07 08:34:58;;;;;;;1.90;1.77;;;;;;;20.64;74.98;99764.98;4955302;60;21212;-79
2021/08/07 08:40:06;;;;;;;3.27;1.90;;;;;;;20.96;72.07;99759.37;4955557;59;21176;-79
2021/08/07 08:45:12;;;;;;;2.25;2.05;;;;;;;21.12;71.03;99760.84;4856604;61;21158;-80
2021/08/07 08:50:22;;;;;;;2.33;2.02;;;;;;;21.16;71.17;99760.75;4856684;61;21155;-75
2021/08/07 08:55:27;;;;;;;3.58;1.42;;;;;;;21.21;70.74;99766.38;4856571;61;21171;-77
2021/08/07 09:00:33;;;;;;;1.60;1.50;;;;;;;21.37;68.70;99761.11;4856672;60;22162;-78
2021/08/07 09:05:39;;;;;;;4.90;1.80;;;;;;;21.40;68.65;99764.18;4856544;61;21191;-80
2021/08/07 09:10:48;;;;;;;3.87;1.47;;;;;;;21.67;68.52;99762.33;4856710;61;21104;-78
2021/08/07 09:15:54;;;;;;;2.77;1.47;;;;;;;21.89;67.49;99762.05;4943229;60;21579;-79
2021/08/07 09:21:15;;;;;;;2.90;1.98;;;;;;;22.08;66.09;99767.95;4909633;60;21120;-80
2021/08/07 09:26:24;;;;;;;7.58;2.30;;;;;;;22.16;65.09;99764.18;4944670;60;21631;-79
2021/08/07 09:31:31;;;;;;;7.78;2.95;;;;;;;22.20;65.57;99750.60;4945021;60;21204;-81
2021/08/07 09:36:57;;;;;;;7.58;1.95;;;;;;;22.33;65.54;99758.63;4945454;60;21179;-82
2021/08/07 09:42:02;;;;;;;3.40;1.60;;;;;;;22.65;63.01;99758.17;4945722;60;21208;-83
2021/08/07 09:47:16;;;;;;;1.32;1.30;;;;;;;22.67;61.68;99755.56;4945027;60;21222;-82
2021/08/07 09:52:23;;;;;;;4.85;2.08;;;;;;;22.59;61.11;99750.44;4945329;60;21207;-79
2021/08/07 09:57:31;;;;;;;1.45;1.15;;;;;;;22.34;62.31;99754.38;4909605;60;21202;-83
2021/08/07 10:02:39;;;;;;;2.50;1.40;;;;;;;22.42;62.69;99760.06;4945120;60;21183;-81
2021/08/07 10:08:03;;;;;;;4.62;1.12;;;;;;;22.65;62.72;99754.12;4945132;59;21188;-83
2021/08/07 10:13:24;;;;;;;2.67;1.50;;;;;;;22.87;60.52;99764.10;4945072;60;21177;-80
2021/08/07 10:18:39;;;;;;;4.47;1.90;;;;;;;23.13;60.53;99753.12;4943575;60;21629;-82
2021/08/07 10:23:49;;;;;;;2.10;1.65;;;;;;;23.20;60.01;99758.48;4945324;60;21180;-82
2021/08/07 10:29:02;;;;;;;3.87;2.58;;;;;;;23.37;57.55;99751.49;4922919;59;21704;-81
2021/08/07 10:34:09;;;;;;;2.80;1.10;;;;;;;23.60;58.08;99746.84;4905510;60;21240;-80
2021/08/07 10:39:17;;;;;;;1.85;1.25;;;;;;;23.82;55.50;99751.61;4905425;60;21173;-81
2021/08/07 10:44:23;;;;;;;1.95;1.45;;;;;;;23.84;55.08;99751.36;4905312;60;21234;-80
2021/08/07 10:49:42;;;;;;;7.03;2.08;;;;;;;23.52;55.96;99747.97;4905184;60;21221;-81
2021/08/07 10:54:51;;;;;;;3.15;1.75;;;;;;;23.65;55.73;99747.01;4905182;60;21646;-82
2021/08/07 10:59:56;;;;;;;2.02;1.87;;;;;;;23.90;55.24;99739.67;4905371;60;21177;-83
2021/08/07 11:05:02;;;;;;;4.42;1.98;;;;;;;24.25;55.77;99744.51;4904311;59;22165;-83
2021/08/07 11:10:15;;;;;;;3.40;1.30;;;;;;;24.56;52.13;99742.13;4829230;60;21116;-84
2021/08/07 11:15:33;;;;;;;3.02;1.32;;;;;;;24.66;52.53;99738.34;5043224;58;21611;-80
2021/08/07 11:20:42;;;;;;;2.05;1.10;;;;;;;24.85;52.80;99730.48;5043313;59;21163;-84
2021/08/07 11:25:55;;;;;;;3.35;2.17;;;;;;;24.74;52.43;99742.92;5043572;59;21547;-84
2021/08/07 11:31:13;;;;;;;3.50;1.70;;;;;;;24.98;53.34;99729.48;5043685;59;21184;-81
2021/08/07 11:36:19;;;;;;;0.95;0.95;;;;;;;25.24;50.85;99724.45;5043257;59;21125;-85
2021/08/07 11:41:37;;;;;;;7.75;1.35;;;;;;;25.40;50.88;99713.47;5043391;59;21180;-82
2021/08/07 11:46:43;;;;;;;8.70;2.17;;;;;;;25.50;50.39;99734.56;5005406;59;21212;-80
2021/08/07 11:51:52;;;;;;;3.45;1.87;;;;;;;25.68;49.76;99723.61;4963523;60;22208;-82
2021/08/07 11:56:58;;;;;;;4.12;1.30;;;;;;;25.82;47.15;99729.59;4827771;61;21111;-82
2021/08/07 12:02:08;;;;;;;6.37;1.52;;;;;;;25.96;48.24;99733.73;4827806;61;21158;-83
2021/08/07 12:07:15;;;;;;;6.08;1.65;;;;;;;26.11;48.28;99726.45;4961771;60;22241;-82
2021/08/07 12:12:22;;;;;;;3.10;1.50;;;;;;;26.25;46.18;99728.66;5038935;59;21121;-81
2021/08/07 12:17:28;;;;;;;1.40;1.35;;;;;;;26.27;45.36;99721.64;5043532;59;21180;-83
2021/08/07 12:22:33;;;;;;;11.12;1.90;;;;;;;26.44;45.92;99718.98;5043840;59;21176;-85
2021/08/07 12:27:39;;;;;;;2.87;1.50;;;;;;;26.57;47.08;99705.16;5042365;59;21481;-79
2021/08/07 12:32:45;;;;;;;3.15;1.02;;;;;;;26.70;45.43;99706.22;5032618;59;21164;-79
2021/08/07 12:37:51;;;;;;;1.25;1.12;;;;;;;26.80;45.07;99702.31;5033595;58;21192;-78
2021/08/07 12:42:56;;;;;;;1.60;1.42;;;;;;;26.72;44.72;99693.23;5033396;58;21196;-83
2021/08/07 12:48:02;;;;;;;0.82;0.82;;;;;;;26.70;45.66;99689.11;4974133;58;21201;-80
2021/08/07 12:53:08;;;;;;;0.93;0.93;;;;;;;26.81;44.34;99697.18;4817815;61;21217;-83
2021/08/07 12:58:21;;;;;;;2.17;1.17;;;;;;;26.74;43.84;99703.81;4817873;61;21267;-83
2021/08/07 13:03:27;;;;;;;1.20;1.00;;;;;;;26.76;45.31;99703.86;4818329;61;22484;-80
2021/08/07 13:08:33;;;;;;;7.30;1.10;;;;;;;26.99;43.39;99703.48;4832247;60;21167;-84
2021/08/07 13:13:49;;;;;;;3.58;1.10;;;;;;;27.06;43.46;99701.41;5014447;59;21203;-80
2021/08/07 13:19:18;;;;;;;1.32;1.22;;;;;;;27.26;43.08;99704.46;4954401;60;21211;-81
2021/08/07 13:24:32;;;;;;;1.20;1.12;;;;;;;27.26;42.73;99702.57;4860434;60;21226;-83
2021/08/07 13:29:40;;;;;;;3.25;1.10;;;;;;;27.12;42.68;99709.41;4872848;60;21274;-83
2021/08/07 13:34:45;;;;;;;2.05;1.35;;;;;;;26.97;43.40;99701.02;4771379;61;21722;-84
2021/08/07 13:39:52;;;;;;;2.00;1.80;;;;;;;27.05;43.11;99699.77;4857192;60;22492;-82
2021/08/07 13:44:58;;;;;;;1.25;1.05;;;;;;;27.18;41.94;99687.25;4857268;60;21226;-83
2021/08/07 13:50:04;;;;;;;2.72;1.00;;;;;;;27.43;42.80;99682.19;4857172;60;21819;-80
2021/08/07 13:55:11;;;;;;;1.55;0.95;;;;;;;27.50;41.16;99688.25;4856812;60;21600;-84
2021/08/07 14:00:16;;;;;;;1.87;1.20;;;;;;;27.55;42.92;99697.84;4824107;61;21186;-83
2021/08/07 14:05:22;;;;;;;3.83;1.82;;;;;;;27.61;41.87;99698.25;4848201;61;21194;-81
2021/08/07 14:10:28;;;;;;;3.33;3.00;;;;;;;27.45;41.90;99716.72;4848149;61;21662;-83
2021/08/07 14:15:34;;;;;;;7.33;1.60;;;;;;;27.28;41.95;99715.37;4848466;61;22388;-82
2021/08/07 14:20:41;;;;;;;2.08;0.93;;;;;;;27.14;41.77;99714.06;4936906;60;21276;-81
2021/08/07 14:25:47;;;;;;;5.35;1.30;;;;;;;27.31;42.71;99714.88;4936783;60;21212;-81
2021/08/07 14:30:52;;;;;;;1.30;1.07;;;;;;;27.44;42.31;99716.42;4936314;59;21152;-82
2021/08/07 14:35:59;;;;;;;2.02;1.67;;;;;;;27.55;41.49;99712.78;4936011;60;21230;-80
2021/08/07 14:41:08;;;;;;;1.00;1.00;;;;;;;27.70;41.13;99708.67;4934760;60;22464;-79
2021/08/07 14:46:12;;;;;;;2.27;0.98;;;;;;;27.72;40.54;99713.32;4933508;60;21192;-80
2021/08/07 14:51:18;;;;;;;2.02;1.37;;;;;;;27.57;41.05;99726.97;4944954;60;21264;-81
2021/08/07 14:56:24;;;;;;;6.30;1.25;;;;;;;27.65;40.16;99727.10;4944928;60;22207;-80
2021/08/07 15:01:30;;;;;;;9.35;1.62;;;;;;;27.59;41.11;99728.09;4945158;60;21530;-82
2021/08/07 15:06:36;;;;;;;3.42;2.02;;;;;;;27.45;41.54;99714.53;4945193;60;21223;-81
2021/08/07 15:11:42;;;;;;;37.13;28.92;;;;;;;27.23;41.69;99709.02;4945182;60;21217;-83
2021/08/07 15:16:47;;;;;;;25.30;20.00;;;;;;;27.13;42.19;99698.84;4935741;59;21211;-80
2021/08/07 15:21:53;;;;;;;5.80;2.33;;;;;;;27.14;42.58;99696.41;4935099;60;21206;-81
2021/08/07 15:26:59;;;;;;;1.00;1.00;;;;;;;27.26;41.76;99698.50;4935075;60;21189;-80
2021/08/07 15:32:05;;;;;;;3.70;1.15;;;;;;;27.27;41.34;99695.25;4935027;59;21928;-80
2021/08/07 15:37:11;;;;;;;6.50;1.05;;;;;;;27.16;40.28;99692.09;4935189;59;21279;-82
2021/08/07 15:42:16;;;;;;;8.80;1.82;;;;;;;27.03;40.13;99687.83;4935005;59;21273;-79
2021/08/07 15:47:22;;;;;;;7.78;1.32;;;;;;;26.84;40.67;99683.13;4935192;59;21225;-79
2021/08/07 15:52:29;;;;;;;2.35;1.75;;;;;;;26.80;41.30;99679.25;4936318;60;21202;-79
2021/08/07 15:57:35;;;;;;;1.57;1.47;;;;;;;26.92;41.16;99678.64;4936420;60;21201;-80
2021/08/07 16:02:40;;;;;;;6.55;2.12;;;;;;;27.04;40.58;99673.16;4936664;60;22475;-80
2021/08/07 16:07:46;;;;;;;1.50;1.07;;;;;;;27.15;40.61;99680.41;4936342;60;21263;-79
2021/08/07 16:12:52;;;;;;;3.67;1.82;;;;;;;27.17;39.36;99676.09;4936370;60;21492;-79
2021/08/07 16:17:58;;;;;;;6.75;1.10;;;;;;;27.10;39.73;99678.14;4936302;60;22553;-79
2021/08/07 16:23:04;;;;;;;3.33;1.00;;;;;;;26.98;40.20;99676.88;4935413;60;21673;-82
2021/08/07 16:28:10;;;;;;;4.67;1.05;;;;;;;26.90;40.23;99689.45;4934631;60;21275;-81
2021/08/07 16:33:16;;;;;;;1.65;1.17;;;;;;;26.67;40.32;99690.95;4957244;59;21200;-81
2021/08/07 16:38:22;;;;;;;1.35;1.20;;;;;;;26.57;40.41;99697.03;4976929;59;21296;-81
2021/08/07 16:43:28;;;;;;;6.12;0.93;;;;;;;26.54;40.49;99687.48;4977152;59;21211;-80
2021/08/07 16:48:34;;;;;;;4.58;0.85;;;;;;;26.51;41.28;99697.98;4977421;59;21210;-81
2021/08/07 16:53:39;;;;;;;3.62;1.90;;;;;;;26.47;41.25;99703.06;4977326;59;21507;-83
2021/08/07 16:58:46;;;;;;;2.37;1.85;;;;;;;26.38;41.46;99695.04;4977304;59;21216;-82
2021/08/07 17:03:52;;;;;;;10.03;1.42;;;;;;;26.30;41.64;99697.30;4977062;59;21823;-82
2021/08/07 17:08:57;;;;;;;5.37;1.80;;;;;;;26.14;42.06;99696.96;4956285;59;21172;-79
2021/08/07 17:14:03;;;;;;;4.37;2.60;;;;;;;26.00;42.44;99696.94;4899232;60;21283;-80
2021/08/07 17:19:08;;;;;;;13.93;9.93;;;;;;;25.93;42.35;99701.69;4908470;60;21274;-79
2021/08/07 17:24:14;;;;;;;2.17;1.98;;;;;;;25.86;42.88;99710.46;4908629;60;21540;-82
2021/08/07 17:29:20;;;;;;;3.08;2.62;;;;;;;25.80;43.18;99706.02;4903020;60;21296;-81
2021/08/07 17:34:28;;;;;;;4.47;1.35;;;;;;;25.73;43.43;99714.78;4884613;60;21209;-79
2021/08/07 17:39:33;;;;;;;8.78;2.12;;;;;;;25.64;43.45;99714.86;4868465;60;21217;-80
2021/08/07 17:44:39;;;;;;;5.83;3.70;;;;;;;25.59;43.96;99727.19;4868146;61;21517;-81
2021/08/07 17:49:45;;;;;;;8.00;2.60;;;;;;;25.51;44.27;99723.46;4868263;61;21335;-80
2021/08/07 17:54:51;;;;;;;3.27;1.55;;;;;;;25.39;44.51;99728.06;4868144;60;21259;-80
2021/08/07 17:59:57;;;;;;;15.35;1.17;;;;;;;25.39;44.97;99724.52;4868152;60;21216;-82
2021/08/07 18:05:03;;;;;;;3.85;1.52;;;;;;;25.33;44.94;99724.95;4878378;61;21185;-81
2021/08/07 18:10:10;;;;;;;2.50;1.70;;;;;;;25.23;45.26;99725.52;4917320;60;21175;-80
2021/08/07 18:15:18;;;;;;;3.12;1.32;;;;;;;25.17;44.98;99726.47;4955353;60;21203;-81
2021/08/07 18:20:24;;;;;;;4.55;1.30;;;;;;;25.09;45.27;99732.20;4955359;60;21216;-80
2021/08/07 18:25:30;;;;;;;3.92;1.65;;;;;;;25.03;45.23;99738.56;4950474;60;21285;-79
2021/08/07 18:30:35;;;;;;;4.83;2.70;;;;;;;24.93;45.25;99736.89;4944500;60;21262;-83
2021/08/07 18:35:41;;;;;;;5.67;1.60;;;;;;;24.85;45.62;99739.95;4944723;59;21179;-81
2021/08/07 18:40:47;;;;;;;11.75;2.92;;;;;;;24.79;45.66;99730.86;4944834;60;22042;-80
2021/08/07 18:45:53;;;;;;;2.42;2.02;;;;;;;24.74;45.73;99733.45;4944640;60;21645;-79
2021/08/07 18:50:59;;;;;;;3.33;1.80;;;;;;;24.67;45.85;99732.70;4944016;59;21183;-80
2021/08/07 18:56:06;;;;;;;4.12;2.33;;;;;;;24.54;45.85;99731.02;4943658;60;21152;-82
2021/08/07 19:01:12;;;;;;;16.25;3.50;;;;;;;24.46;46.02;99743.48;4943485;60;22611;-80
2021/08/07 19:06:18;;;;;;;6.62;3.47;;;;;;;24.38;46.22;99746.52;4943019;60;21203;-82
2021/08/07 19:11:24;;;;;;;2.75;1.20;;;;;;;24.32;46.42;99753.34;4885293;59;21261;-80
2021/08/07 19:16:30;;;;;;;2.00;1.70;;;;;;;24.30;46.61;99748.69;4866954;61;21201;-80
2021/08/07 19:21:36;;;;;;;3.40;1.77;;;;;;;24.23;46.58;99757.38;4867422;61;21225;-82
2021/08/07 19:26:42;;;;;;;9.60;1.82;;;;;;;24.17;46.96;99761.28;4867944;61;21228;-79
2021/08/07 19:31:48;;;;;;;3.65;1.95;;;;;;;24.20;47.00;99757.31;4869051;60;21647;-82
2021/08/07 19:36:53;;;;;;;49.30;31.87;;;;;;;24.25;46.94;99748.04;4875413;60;21702;-80
2021/08/07 19:41:59;;;;;;;39.45;19.48;;;;;;;24.25;46.74;99733.70;4877587;60;21209;-80
2021/08/07 19:47:04;;;;;;;43.52;21.07;;;;;;;24.17;46.68;99743.72;4877208;60;21244;-81
2021/08/07 19:52:10;;;;;;;70.25;36.05;;;;;;;24.07;46.88;99746.66;4877376;60;21270;-81
2021/08/07 19:57:16;;;;;;;61.37;35.40;;;;;;;24.00;47.05;99756.70;4877126;60;21157;-82
2021/08/07 20:02:22;;;;;;;56.92;32.42;;;;;;;23.95;47.16;99757.39;4877662;60;21267;-79
2021/08/07 20:07:28;;;;;;;30.57;17.85;;;;;;;23.92;47.46;99759.19;4877131;60;21718;-81
2021/08/07 20:12:33;;;;;;;10.10;6.55;;;;;;;23.93;47.63;99752.73;4876305;60;21119;-80
2021/08/07 20:17:39;;;;;;;3.92;2.50;;;;;;;23.91;47.74;99752.66;4876269;60;21174;-81
2021/08/07 20:22:45;;;;;;;20.70;3.67;;;;;;;23.84;47.94;99760.28;4875173;60;21126;-81
2021/08/07 20:27:51;;;;;;;16.60;3.65;;;;;;;23.74;48.14;99751.06;4875112;60;21122;-82
2021/08/07 20:32:57;;;;;;;9.73;2.90;;;;;;;23.49;48.57;99742.45;4874914;60;21127;-79
2021/08/07 20:38:03;;;;;;;15.03;3.85;;;;;;;23.17;49.17;99735.98;4934011;59;21504;-79
2021/08/07 20:43:10;;;;;;;14.23;2.62;;;;;;;22.97;49.64;99739.64;4944246;60;21580;-81
2021/08/07 20:48:16;;;;;;;6.90;2.25;;;;;;;22.79;51.09;99730.12;4943833;60;21810;-82
2021/08/07 20:53:22;;;;;;;11.80;2.55;;;;;;;22.67;51.80;99724.56;4944606;60;21258;-82
2021/08/07 20:58:28;;;;;;;8.45;4.22;;;;;;;22.58;52.00;99727.75;4944854;60;21303;-80
2021/08/07 21:03:35;;;;;;;18.60;3.22;;;;;;;22.42;51.46;99727.72;4944835;59;21325;-80
2021/08/07 21:08:42;;;;;;;11.12;3.37;;;;;;;22.25;51.39;99726.56;4830504;61;21216;-82
2021/08/07 21:13:48;;;;;;;5.17;2.47;;;;;;;22.16;51.55;99739.94;4768459;62;21200;-81
2021/08/07 21:18:53;;;;;;;5.83;1.92;;;;;;;22.09;51.73;99746.20;4771757;62;21236;-79
2021/08/07 21:23:59;;;;;;;6.33;2.22;;;;;;;22.11;51.95;99720.41;4768223;61;21237;-81
2021/08/07 21:29:05;;;;;;;7.37;1.87;;;;;;;22.16;52.00;99715.18;4771971;62;21213;-81
2021/08/07 21:34:11;;;;;;;6.42;2.27;;;;;;;22.21;52.09;99697.04;4768689;62;21193;-81
2021/08/07 21:39:18;;;;;;;9.00;2.42;;;;;;;22.18;52.09;99682.13;4772005;62;21177;-80
2021/08/07 21:44:24;;;;;;;10.58;2.40;;;;;;;22.15;52.25;99686.63;4768697;62;21603;-79
2021/08/07 21:49:29;;;;;;;7.92;3.10;;;;;;;22.10;52.37;99698.55;4772022;62;21300;-79
2021/08/07 21:54:35;;;;;;;10.03;2.72;;;;;;;22.12;52.58;99690.26;4768678;62;21196;-80
2021/08/07 21:59:42;;;;;;;17.60;4.47;;;;;;;22.09;52.74;99702.28;4772098;62;21260;-79
2021/08/07 22:04:48;;;;;;;9.38;3.90;;;;;;;22.02;52.84;99721.66;4768519;62;21189;-82
2021/08/07 22:09:54;;;;;;;3.98;2.52;;;;;;;21.94;52.88;99733.99;4806009;61;21216;-79
2021/08/07 22:15:00;;;;;;;10.72;2.80;;;;;;;21.88;53.03;99749.11;4846658;61;21131;-82
2021/08/07 22:20:08;;;;;;;5.35;2.02;;;;;;;21.80;53.38;99742.63;4846417;61;21194;-80
2021/08/07 22:25:14;;;;;;;8.65;2.30;;;;;;;21.75;53.55;99738.38;4856582;61;21158;-79
2021/08/07 22:30:19;;;;;;;8.03;2.30;;;;;;;21.75;53.64;99748.63;4856509;61;21218;-78
2021/08/07 22:35:25;;;;;;;8.43;1.77;;;;;;;21.81;53.72;99746.97;4856373;60;21699;-79
2021/08/07 22:40:31;;;;;;;4.62;2.02;;;;;;;21.80;53.94;99760.64;4856429;61;22133;-80
2021/08/07 22:45:37;;;;;;;4.90;2.60;;;;;;;21.74;54.68;99769.02;4856422;61;22106;-82
2021/08/07 22:50:43;;;;;;;9.18;3.70;;;;;;;21.63;55.00;99776.40;4855722;61;21146;-81
2021/08/07 22:55:48;;;;;;;8.80;3.52;;;;;;;21.41;55.66;99769.88;4918211;60;22156;-80
2021/08/07 23:00:54;;;;;;;8.18;3.95;;;;;;;21.23;56.48;99760.28;4944586;60;21520;-79
2021/08/07 23:06:00;;;;;;;13.10;3.47;;;;;;;20.95;57.66;99765.78;4944787;60;21579;-80
2021/08/07 23:11:06;;;;;;;5.60;3.62;;;;;;;20.80;58.75;99773.19;4921326;59;21119;-80
2021/08/07 23:16:12;;;;;;;12.88;4.33;;;;;;;20.65;59.72;99784.11;4974306;59;22134;-81
2021/08/07 23:21:17;;;;;;;8.25;5.08;;;;;;;20.53;60.89;99792.95;4974450;59;21192;-81
2021/08/07 23:26:23;;;;;;;4.80;3.15;;;;;;;20.55;61.19;99797.61;4975326;59;21072;-79
2021/08/07 23:31:29;;;;;;;5.67;3.58;;;;;;;20.59;61.40;99780.91;4994122;59;21179;-82
2021/08/07 23:36:35;;;;;;;11.00;3.45;;;;;;;20.63;61.79;99789.36;5005129;59;21178;-80
2021/08/07 23:41:41;;;;;;;6.37;2.62;;;;;;;20.51;61.85;99789.13;5005217;59;22199;-81
2021/08/07 23:46:47;;;;;;;4.05;2.55;;;;;;;20.39;63.07;99793.93;5005326;59;21194;-81
2021/08/07 23:51:53;;;;;;;2.80;2.30;;;;;;;20.28;62.92;99775.17;5005313;59;21167;-82
2021/08/07 23:56:58;;;;;;;6.58;2.95;;;;;;;20.36;63.38;99762.92;5005277;59;21672;-79
